createdAt,value
2022-08-10T00:02:57.975Z,91.80
2022-08-10T00:09:51.096Z,92.30
2022-08-10T00:16:33.831Z,92.60
2022-08-10T00:23:16.240Z,92.80
2022-08-10T00:29:59.010Z,92.20
2022-08-10T00:36:41.369Z,92.80
2022-08-10T00:43:25.145Z,93.80
2022-08-10T00:50:08.427Z,93.60
2022-08-10T00:57:15.754Z,94.10
2022-08-10T01:04:57.860Z,94.40
2022-08-10T01:12:38.066Z,94.60
2022-08-10T01:18:46.302Z,94.90
2022-08-10T01:26:10.482Z,96.20
2022-08-10T01:33:31.940Z,96.20
2022-08-10T01:40:31.415Z,96.60
2022-08-10T01:47:36.896Z,97.20
2022-08-10T01:54:22.219Z,97.00
2022-08-10T02:01:07.256Z,97.10
2022-08-10T02:07:51.216Z,97.10
2022-08-10T02:14:41.329Z,97.10
2022-08-10T02:21:25.693Z,97.20
2022-08-10T02:28:10.028Z,97.00
2022-08-10T02:34:54.442Z,96.50
2022-08-10T02:45:00.913Z,95.00
2022-08-10T02:49:04.218Z,94.90
2022-08-10T02:56:16.350Z,95.30
2022-08-10T03:03:01.116Z,96.60
2022-08-10T03:09:46.008Z,96.50
2022-08-10T03:16:33.413Z,95.50
2022-08-10T03:23:23.252Z,95.70
2022-08-10T03:30:28.120Z,95.70
2022-08-10T03:37:08.721Z,95.80
2022-08-10T03:43:51.899Z,97.20
2022-08-10T03:50:51.262Z,98.40
2022-08-10T03:57:35.098Z,98.90
2022-08-10T04:04:32.318Z,98.50
2022-08-10T04:11:14.666Z,98.60
2022-08-10T04:18:05.771Z,98.50
2022-08-10T04:24:51.421Z,98.20
2022-08-10T04:31:35.998Z,98.00
2022-08-10T04:38:18.965Z,98.70
2022-08-10T04:45:08.048Z,98.60
2022-08-10T04:51:50.467Z,98.70
2022-08-10T04:58:32.803Z,98.40
2022-08-10T05:05:15.161Z,98.50
2022-08-10T05:11:57.519Z,98.10
2022-08-10T05:18:39.877Z,97.60
2022-08-10T05:25:22.277Z,95.90
2022-08-10T05:32:05.136Z,96.20
2022-08-10T05:38:49.376Z,93.20
2022-08-10T05:45:31.859Z,89.90
2022-08-10T05:52:15.376Z,86.00
2022-08-10T05:58:57.848Z,82.40
2022-08-10T06:05:43.325Z,80.30
2022-08-10T06:12:30.689Z,76.30
2022-08-10T06:19:20.743Z,73.60
2022-08-10T06:26:11.935Z,72.90
2022-08-10T06:32:59.813Z,71.90
2022-08-10T06:39:43.455Z,68.20
2022-08-10T06:46:27.765Z,65.80
2022-08-10T06:53:21.242Z,64.60
2022-08-10T07:00:06.904Z,63.60
2022-08-10T07:06:50.622Z,63.70
2022-08-10T07:14:17.198Z,63.70
2022-08-10T07:20:39.185Z,62.60
2022-08-10T07:27:23.397Z,61.60
2022-08-10T07:34:07.198Z,60.90
2022-08-10T07:40:51.739Z,61.20
2022-08-10T07:47:52.920Z,58.20
2022-08-10T07:54:42.556Z,58.70
2022-08-10T08:01:31.780Z,59.00
2022-08-10T08:08:15.544Z,59.40
2022-08-10T08:14:59.784Z,57.30
2022-08-10T08:24:05.431Z,57.30
2022-08-10T08:28:46.187Z,56.90
2022-08-10T08:35:29.746Z,57.20
2022-08-10T08:42:30.839Z,55.90
2022-08-10T08:50:07.868Z,54.90
2022-08-10T08:57:50.632Z,54.10
2022-08-10T09:04:52.704Z,54.10
2022-08-10T09:12:02.399Z,53.20
2022-08-10T09:19:09.564Z,51.80
2022-08-10T09:25:56.005Z,53.30
2022-08-10T09:36:15.194Z,51.80
2022-08-10T09:40:57.684Z,51.10
2022-08-10T09:48:01.879Z,51.20
2022-08-10T09:55:06.461Z,47.40
2022-08-10T10:02:03.708Z,46.80
2022-08-10T10:09:10.140Z,44.60
2022-08-10T10:16:05.916Z,45.60
2022-08-10T10:23:06.931Z,47.20
2022-08-10T10:30:06.505Z,47.20
2022-08-10T10:36:52.115Z,48.50
2022-08-10T10:43:59.429Z,47.80
2022-08-10T10:50:54.293Z,49.10
2022-08-10T10:58:04.816Z,48.60
2022-08-10T11:04:58.910Z,48.80
2022-08-10T11:12:01.763Z,50.10
2022-08-10T11:19:08.580Z,50.80
2022-08-10T11:26:15.320Z,51.50
2022-08-10T11:33:31.061Z,51.10
2022-08-10T11:40:26.134Z,52.50
2022-08-10T11:47:13.015Z,52.60
2022-08-10T11:54:35.114Z,52.20
2022-08-10T12:01:29.504Z,53.00
2022-08-10T12:10:02.911Z,53.20
2022-08-10T12:15:29.438Z,53.60
2022-08-10T12:22:24.919Z,52.70
2022-08-10T12:29:30.800Z,53.20
2022-08-10T12:36:26.856Z,53.20
2022-08-10T12:44:05.488Z,52.50
2022-08-10T12:50:37.736Z,53.00
2022-08-10T12:57:24.653Z,52.50
2022-08-10T13:04:20.799Z,53.60
2022-08-10T13:11:18.505Z,52.70
2022-08-10T13:18:18.665Z,51.90
2022-08-10T13:25:05.367Z,51.70
2022-08-10T13:32:03.777Z,51.30
2022-08-10T13:38:56.514Z,51.80
2022-08-10T13:45:47.704Z,51.50
2022-08-10T13:52:34.491Z,50.80
2022-08-10T13:59:19.091Z,51.40
2022-08-10T14:06:04.783Z,50.60
2022-08-10T14:12:50.530Z,50.50
2022-08-10T14:19:39.451Z,50.70
2022-08-10T14:26:30.886Z,50.70
2022-08-10T14:33:19.228Z,50.70
2022-08-10T14:40:09.193Z,51.30
2022-08-10T14:46:57.282Z,51.50
2022-08-10T14:53:41.682Z,51.20
2022-08-10T15:00:33.073Z,50.90
2022-08-10T15:07:29.611Z,51.00
2022-08-10T15:14:41.441Z,50.30
2022-08-10T15:21:17.821Z,50.10
2022-08-10T15:28:08.110Z,50.60
2022-08-10T15:35:10.019Z,49.40
2022-08-10T15:42:00.272Z,50.20
2022-08-10T15:48:48.474Z,49.50
2022-08-10T15:55:43.191Z,49.30
2022-08-10T16:02:32.295Z,49.30
2022-08-10T16:10:22.694Z,49.80
2022-08-10T16:16:36.890Z,49.80
2022-08-10T16:23:23.279Z,49.50
2022-08-10T16:30:06.480Z,49.80
2022-08-10T16:37:10.769Z,50.00
2022-08-10T16:43:53.574Z,50.50
2022-08-10T16:50:41.679Z,50.90
2022-08-10T16:57:28.024Z,50.90
2022-08-10T17:04:12.601Z,50.90
2022-08-10T17:10:56.332Z,51.10
2022-08-10T17:17:45.101Z,51.80
2022-08-10T17:24:43.178Z,51.20
2022-08-10T17:31:54.378Z,51.50
2022-08-10T17:38:38.284Z,50.90
2022-08-10T17:45:46.931Z,51.40
2022-08-10T17:52:32.387Z,51.00
2022-08-10T17:59:17.284Z,51.50
2022-08-10T18:06:06.586Z,52.00
2022-08-10T18:12:55.883Z,52.00
2022-08-10T18:19:41.856Z,52.10
2022-08-10T18:26:24.794Z,52.30
2022-08-10T18:33:11.251Z,52.80
2022-08-10T18:39:59.420Z,53.00
2022-08-10T18:46:52.747Z,53.30
2022-08-10T18:53:38.807Z,54.30
2022-08-10T19:00:25.634Z,56.40
2022-08-10T19:07:47.428Z,56.60
2022-08-10T19:14:50.169Z,57.50
2022-08-10T19:21:39.312Z,58.10
2022-08-10T19:28:33.256Z,56.90
2022-08-10T19:35:30.625Z,60.30
2022-08-10T19:42:41.533Z,61.70
2022-08-10T19:49:52.528Z,62.80
2022-08-10T19:56:57.928Z,64.10
2022-08-10T20:03:50.907Z,64.40
2022-08-10T20:10:51.739Z,65.30
2022-08-10T20:17:51.396Z,66.00
2022-08-10T20:24:59.252Z,68.60
2022-08-10T20:31:56.969Z,66.70
2022-08-10T20:38:48.335Z,66.60
2022-08-10T20:46:05.073Z,64.20
2022-08-10T20:52:44.660Z,64.10
2022-08-10T21:00:02.548Z,66.20
2022-08-10T21:07:50.642Z,65.00
2022-08-10T21:15:07.131Z,65.70
2022-08-10T21:22:03.398Z,65.40
2022-08-10T21:29:21.581Z,65.50
2022-08-10T21:36:17.063Z,65.40
2022-08-10T21:43:57.630Z,65.60
2022-08-10T21:51:16.569Z,66.00
2022-08-10T21:58:34.587Z,69.50
2022-08-10T22:05:39.045Z,75.10
2022-08-10T22:12:48.553Z,73.10
2022-08-10T22:19:55.847Z,70.20
2022-08-10T22:31:28.356Z,70.20
2022-08-10T22:34:56.054Z,70.20
2022-08-10T22:42:21.018Z,70.30
2022-08-10T22:49:03.639Z,70.40
2022-08-10T22:56:14.161Z,70.70
2022-08-10T23:03:04.448Z,71.70
2022-08-10T23:10:08.447Z,71.80
2022-08-10T23:17:12.390Z,73.90
2022-08-10T23:23:57.433Z,73.10
2022-08-10T23:30:42.826Z,76.90
2022-08-10T23:37:35.077Z,80.20
2022-08-10T23:44:19.771Z,81.40
2022-08-10T23:51:16.105Z,85.20
2022-08-10T23:58:07.193Z,85.40
